Time;durP1;ratioP1;P1;durP2;ratioP2;P2;SDS_P1;SDS_P2;PMS_P1;PMS_P2;Temp;Humidity;BMP_temperature;BMP_pressure;BME280_temperature;BME280_humidity;BME280_pressure;Samples;Min_cycle;Max_cycle;Signal;HPM_P1;HPM_P2
2022/07/14 00:00:29;;;;;;;1.85;1.35;;;;;;;20.81;82.45;96621.50;5037562;28;20570;-71
2022/07/14 00:02:56;;;;;;;2.63;1.60;;;;;;;20.87;81.22;96634.00;5036485;28;20201;-71
2022/07/14 00:05:24;;;;;;;6.03;1.30;;;;;;;20.80;81.36;96630.63;5036329;28;20201;-71
2022/07/14 00:07:50;;;;;;;2.75;1.23;;;;;;;20.51;82.73;96636.78;5037393;28;20232;-71
2022/07/14 00:10:16;;;;;;;2.65;1.38;;;;;;;20.52;80.81;96640.28;5036877;28;20225;-71
2022/07/14 00:12:43;;;;;;;1.80;1.15;;;;;;;20.48;83.01;96639.09;5035547;28;20236;-71
2022/07/14 00:15:10;;;;;;;3.40;1.48;;;;;;;20.60;79.63;96643.44;5037167;28;20201;-71
2022/07/14 00:17:36;;;;;;;1.83;1.30;;;;;;;20.68;79.21;96634.28;5037238;28;20213;-71
2022/07/14 00:20:04;;;;;;;2.20;1.48;;;;;;;20.90;79.14;96629.00;5035906;28;20244;-71
2022/07/14 00:22:31;;;;;;;1.73;1.30;;;;;;;20.96;77.01;96632.59;5036389;28;20201;-71
2022/07/14 00:24:58;;;;;;;2.92;1.48;;;;;;;20.99;77.99;96622.25;5036756;28;20209;-71
2022/07/14 00:27:24;;;;;;;2.42;1.40;;;;;;;21.05;75.37;96626.69;5036339;28;20205;-71
2022/07/14 00:29:51;;;;;;;2.25;1.42;;;;;;;21.08;73.31;96622.72;5036347;28;20221;-71
2022/07/14 00:32:17;;;;;;;2.97;1.50;;;;;;;21.09;73.67;96627.00;5035720;28;20248;-71
2022/07/14 00:34:43;;;;;;;1.70;1.30;;;;;;;21.07;72.99;96629.13;5034372;28;20747;-71
2022/07/14 00:37:10;;;;;;;4.15;1.58;;;;;;;21.10;72.18;96628.66;5036143;28;20201;-71
2022/07/14 00:39:56;;;;;;;3.70;1.33;;;;;;;21.27;72.75;96621.53;5036599;28;20205;-71
2022/07/14 00:42:34;;;;;;;4.32;1.70;;;;;;;21.32;72.25;96625.16;5035335;28;20440;-71
2022/07/14 00:45:02;;;;;;;1.42;1.23;;;;;;;21.15;70.78;96610.81;5035994;28;20579;-71
2022/07/14 00:47:28;;;;;;;2.10;1.40;;;;;;;21.13;72.08;96606.72;5035986;28;20201;-71
2022/07/14 00:49:56;;;;;;;2.83;1.38;;;;;;;21.23;73.28;96597.09;5035599;28;20276;-71
2022/07/14 00:52:23;;;;;;;4.47;1.60;;;;;;;21.29;72.21;96598.00;5035576;28;20483;-71
2022/07/14 00:54:51;;;;;;;2.45;1.40;;;;;;;21.38;71.53;96597.41;5033384;28;20208;-71
2022/07/14 00:57:18;;;;;;;3.25;1.38;;;;;;;21.36;70.86;96588.78;5036040;28;20205;-71
2022/07/14 00:59:45;;;;;;;5.50;1.70;;;;;;;21.37;71.46;96584.22;5035703;28;20220;-71
2022/07/14 01:02:11;;;;;;;1.65;1.30;;;;;;;21.40;70.40;96587.28;5035722;28;20698;-71
2022/07/14 01:04:38;;;;;;;1.45;1.30;;;;;;;21.37;69.12;96585.03;5035649;28;20587;-71
2022/07/14 01:07:04;;;;;;;1.95;1.30;;;;;;;21.32;67.89;96587.63;5035770;28;20480;-71
2022/07/14 01:09:31;;;;;;;1.42;1.33;;;;;;;21.15;69.47;96593.94;5036202;28;20201;-71
2022/07/14 01:11:59;;;;;;;1.38;1.17;;;;;;;21.20;73.15;96586.00;5035596;28;20283;-71
2022/07/14 01:14:25;;;;;;;1.58;1.30;;;;;;;21.01;70.80;96582.63;5035200;28;20201;-71
2022/07/14 01:16:54;;;;;;;3.83;1.42;;;;;;;21.10;68.95;96588.44;5035666;28;20638;-71
2022/07/14 01:19:21;;;;;;;3.55;1.40;;;;;;;21.17;70.18;96581.13;5037294;28;20203;-71
2022/07/14 01:21:49;;;;;;;1.77;1.30;;;;;;;21.18;70.12;96577.38;5035456;28;20335;-71
2022/07/14 01:24:15;;;;;;;2.72;1.30;;;;;;;20.94;68.48;96587.28;5034917;28;20205;-71
2022/07/14 01:26:42;;;;;;;1.83;1.50;;;;;;;21.13;70.51;96591.50;5036048;28;20445;-71
2022/07/14 01:29:08;;;;;;;1.58;1.30;;;;;;;21.10;70.82;96594.63;5035749;28;20197;-71
2022/07/14 01:31:35;;;;;;;2.20;1.33;;;;;;;21.00;73.49;96597.09;5035313;28;20232;-71
2022/07/14 01:34:01;;;;;;;3.08;1.45;;;;;;;20.92;72.35;96599.28;5034822;28;20225;-71
2022/07/14 01:36:28;;;;;;;3.22;1.40;;;;;;;20.93;73.56;96595.56;5036143;28;20810;-71
2022/07/14 01:38:56;;;;;;;3.60;1.27;;;;;;;21.06;72.22;96598.81;5035845;28;20208;-71
2022/07/14 01:41:23;;;;;;;2.22;1.30;;;;;;;20.92;72.89;96593.91;5036388;28;20271;-71
2022/07/14 01:43:49;;;;;;;4.70;1.40;;;;;;;20.81;69.55;96591.22;5035260;28;20997;-71
2022/07/14 01:46:16;;;;;;;2.70;1.30;;;;;;;20.94;70.02;96595.31;5036130;28;20198;-71
2022/07/14 01:48:42;;;;;;;8.60;2.00;;;;;;;20.99;70.96;96584.72;5036320;28;20476;-71
2022/07/14 01:51:09;;;;;;;7.35;1.45;;;;;;;20.82;70.18;96587.50;5036495;28;20310;-71
2022/07/14 01:53:36;;;;;;;5.43;1.48;;;;;;;20.97;72.59;96580.66;5034910;28;21173;-71
2022/07/14 01:56:04;;;;;;;5.55;1.50;;;;;;;21.03;69.54;96583.22;5033417;28;20212;-72
2022/07/14 01:58:30;;;;;;;4.72;1.48;;;;;;;21.02;71.77;96568.16;5037938;28;20202;-72
2022/07/14 02:03:37;;;;;;;2.47;1.60;;;;;;;21.06;69.24;96569.34;5038605;28;20197;-72
2022/07/14 02:06:05;;;;;;;6.65;1.52;;;;;;;21.03;69.76;96575.16;5039841;28;20205;-72
2022/07/14 02:08:31;;;;;;;1.95;1.10;;;;;;;21.06;70.75;96574.69;5039978;28;20251;-72
2022/07/14 02:13:43;;;;;;;2.92;1.58;;;;;;;21.05;72.97;96573.09;5039049;28;20278;-72
2022/07/14 02:16:09;;;;;;;3.15;1.30;;;;;;;20.82;75.47;96571.44;5039542;28;20616;-71
2022/07/14 02:18:35;;;;;;;3.22;1.30;;;;;;;20.71;75.01;96575.72;5039369;28;20204;-72
2022/07/14 02:21:02;;;;;;;4.13;1.42;;;;;;;20.65;76.45;96575.81;5039861;28;20240;-72
2022/07/14 02:23:28;;;;;;;4.35;1.35;;;;;;;20.66;76.86;96585.47;5038803;28;20205;-72
2022/07/14 02:25:55;;;;;;;2.38;1.45;;;;;;;20.72;74.77;96585.38;5039814;28;20638;-72
2022/07/14 02:28:22;;;;;;;3.35;1.40;;;;;;;20.63;75.02;96577.91;5039968;28;20201;-72
2022/07/14 02:30:49;;;;;;;1.80;1.58;;;;;;;20.76;75.67;96577.72;5038878;28;20308;-72
2022/07/14 02:33:16;;;;;;;3.40;1.55;;;;;;;20.73;75.61;96572.84;5038498;28;20229;-72
2022/07/14 02:35:42;;;;;;;2.47;1.52;;;;;;;20.56;76.66;96577.22;5040100;28;20251;-72
2022/07/14 02:38:09;;;;;;;4.63;2.28;;;;;;;20.47;76.61;96570.56;5038716;28;20205;-72
2022/07/14 02:40:35;;;;;;;6.55;1.70;;;;;;;20.55;75.69;96575.56;5038827;28;20228;-72
2022/07/14 02:43:02;;;;;;;1.77;1.30;;;;;;;20.41;77.83;96574.94;5039385;28;20202;-72
2022/07/14 02:45:28;;;;;;;2.38;1.45;;;;;;;20.29;78.27;96571.44;5035390;28;20317;-71
2022/07/14 02:47:56;;;;;;;2.00;1.42;;;;;;;20.23;79.32;96566.19;5039061;28;20204;-72
2022/07/14 02:50:23;;;;;;;8.43;1.60;;;;;;;20.24;79.52;96567.81;5039645;28;20768;-72
2022/07/14 02:52:49;;;;;;;5.38;1.40;;;;;;;20.16;78.06;96557.41;5038506;28;20314;-72
2022/07/14 02:55:16;;;;;;;5.55;1.63;;;;;;;20.00;80.11;96552.72;5035691;28;20209;-72
2022/07/14 02:57:42;;;;;;;4.72;1.40;;;;;;;20.16;81.17;96557.41;5039263;28;20205;-72
2022/07/14 03:00:10;;;;;;;2.88;1.67;;;;;;;20.22;78.06;96565.34;5038619;28;20242;-72
2022/07/14 03:02:36;;;;;;;2.75;1.50;;;;;;;20.13;77.34;96567.78;5038278;28;20197;-72
2022/07/14 03:05:05;;;;;;;4.32;1.50;;;;;;;20.27;77.73;96557.44;5039118;28;20205;-72
2022/07/14 03:07:31;;;;;;;6.10;2.03;;;;;;;20.17;77.54;96556.38;5038914;28;20559;-71
2022/07/14 03:09:57;;;;;;;4.28;1.65;;;;;;;20.12;78.29;96558.13;5037776;28;20229;-71
2022/07/14 03:12:24;;;;;;;4.57;1.48;;;;;;;20.17;79.29;96544.88;5037506;28;20390;-72
2022/07/14 03:14:50;;;;;;;3.00;1.65;;;;;;;19.85;80.20;96548.78;5038004;28;20728;-72
2022/07/14 03:17:18;;;;;;;4.90;1.52;;;;;;;19.72;80.59;96559.66;5037385;28;20580;-72
2022/07/14 03:19:45;;;;;;;4.72;1.52;;;;;;;19.58;82.74;96572.38;5038010;28;20265;-72
2022/07/14 03:22:13;;;;;;;2.22;1.40;;;;;;;19.64;82.09;96578.69;5037762;28;20205;-71
2022/07/14 03:24:39;;;;;;;2.38;1.67;;;;;;;19.39;82.93;96590.50;5037210;28;20204;-71
2022/07/14 03:27:06;;;;;;;4.70;1.58;;;;;;;19.19;83.16;96589.91;5038008;28;20201;-71
2022/07/14 03:29:32;;;;;;;1.70;1.50;;;;;;;19.26;83.75;96588.78;5037679;28;20209;-70
2022/07/14 03:31:58;;;;;;;2.03;1.67;;;;;;;18.95;83.83;96585.38;5037578;28;20224;-70
2022/07/14 03:34:25;;;;;;;2.72;1.70;;;;;;;18.99;84.16;96586.56;5037351;28;20268;-74
2022/07/14 03:36:51;;;;;;;6.10;1.63;;;;;;;19.05;83.85;96591.88;5037826;28;20204;-74
2022/07/14 03:39:19;;;;;;;2.88;1.65;;;;;;;19.28;84.88;96583.22;5038023;28;20205;-74
2022/07/14 03:41:46;;;;;;;5.78;1.95;;;;;;;19.25;86.74;96592.50;5038152;28;20669;-75
2022/07/14 03:44:12;;;;;;;2.67;1.67;;;;;;;19.23;83.88;96583.06;5037865;28;20204;-75
2022/07/14 03:46:38;;;;;;;5.07;1.90;;;;;;;19.42;86.31;96582.03;5038032;28;20207;-74
2022/07/14 03:49:05;;;;;;;3.53;1.90;;;;;;;19.47;82.04;96587.53;5037670;28;20205;-74
2022/07/14 03:51:31;;;;;;;3.10;1.85;;;;;;;19.55;82.23;96569.31;5037544;28;20221;-74
2022/07/14 03:53:58;;;;;;;4.05;1.60;;;;;;;19.48;81.06;96567.78;5037752;28;20221;-75
2022/07/14 03:56:26;;;;;;;5.85;1.70;;;;;;;19.64;79.80;96568.81;5037257;28;20197;-75
2022/07/14 03:58:52;;;;;;;3.00;1.55;;;;;;;19.51;79.43;96572.69;5037407;28;20959;-75
2022/07/14 04:01:19;;;;;;;2.42;1.75;;;;;;;19.54;78.75;96570.38;5038100;28;20221;-75
2022/07/14 04:03:45;;;;;;;3.55;1.75;;;;;;;19.24;79.83;96584.72;5037258;28;20197;-75
2022/07/14 04:06:12;;;;;;;4.43;2.97;;;;;;;18.97;81.59;96585.97;5037629;28;20292;-75
2022/07/14 04:08:39;;;;;;;4.93;2.28;;;;;;;19.01;80.89;96584.50;5037752;28;20666;-75
2022/07/14 04:11:05;;;;;;;3.40;1.80;;;;;;;18.86;83.28;96581.34;5037285;28;20221;-75
2022/07/14 04:13:33;;;;;;;3.97;1.63;;;;;;;18.98;82.87;96582.28;5036835;28;20233;-75
2022/07/14 04:16:00;;;;;;;7.05;2.03;;;;;;;19.04;82.28;96590.22;5037270;28;21034;-75
2022/07/14 04:18:26;;;;;;;6.35;1.90;;;;;;;19.06;81.40;96587.38;5037980;28;20208;-75
2022/07/14 04:20:54;;;;;;;3.45;1.60;;;;;;;19.11;81.50;96590.19;5036472;28;20233;-75
2022/07/14 04:23:21;;;;;;;12.02;1.92;;;;;;;19.00;83.12;96588.19;5036396;28;20201;-75
2022/07/14 04:25:48;;;;;;;7.75;1.80;;;;;;;19.01;82.41;96589.84;5037134;28;21008;-75
2022/07/14 04:28:15;;;;;;;3.92;1.80;;;;;;;19.15;81.89;96586.84;5037710;28;21081;-75
2022/07/14 04:30:43;;;;;;;4.60;2.15;;;;;;;19.13;82.15;96591.59;5037132;28;20262;-75
2022/07/14 04:33:10;;;;;;;6.57;2.15;;;;;;;18.89;82.85;96588.94;5036662;28;20208;-75
2022/07/14 04:35:36;;;;;;;4.38;1.88;;;;;;;18.91;82.58;96589.53;5037169;28;20193;-75
2022/07/14 04:38:03;;;;;;;7.18;2.10;;;;;;;19.10;80.74;96600.03;5037210;28;20201;-75
2022/07/14 04:40:30;;;;;;;5.78;2.35;;;;;;;19.14;81.28;96589.75;5037087;28;20275;-75
2022/07/14 04:42:56;;;;;;;6.32;1.95;;;;;;;19.27;82.45;96578.91;5036445;28;20208;-75
2022/07/14 04:45:23;;;;;;;6.45;2.20;;;;;;;19.55;80.75;96572.00;5037307;28;20208;-75
2022/07/14 04:47:51;;;;;;;8.40;1.90;;;;;;;19.74;80.15;96565.59;5036994;28;20291;-75
2022/07/14 04:53:02;;;;;;;6.18;1.90;;;;;;;20.02;75.38;96572.06;5036029;28;20260;-75
2022/07/14 04:55:29;;;;;;;6.15;2.00;;;;;;;20.13;75.17;96573.94;5036330;28;20216;-75
2022/07/14 04:57:55;;;;;;;4.03;1.80;;;;;;;20.32;74.15;96573.63;5036821;28;20677;-75
2022/07/14 05:00:21;;;;;;;5.55;1.65;;;;;;;20.45;70.94;96575.31;5036749;28;20231;-75
2022/07/14 05:02:48;;;;;;;7.97;1.83;;;;;;;20.57;69.68;96576.97;5035293;28;20201;-75
2022/07/14 05:05:16;;;;;;;3.25;1.75;;;;;;;20.78;70.09;96581.00;5035587;28;20478;-75
2022/07/14 05:07:42;;;;;;;9.38;2.00;;;;;;;20.68;69.40;96567.31;5036052;28;20684;-75
2022/07/14 05:10:09;;;;;;;5.38;1.70;;;;;;;20.85;68.61;96567.25;5036716;28;20401;-74
2022/07/14 05:12:36;;;;;;;6.13;1.70;;;;;;;20.94;69.24;96568.53;5034864;28;20216;-74
2022/07/14 05:15:03;;;;;;;4.30;1.70;;;;;;;21.05;68.14;96570.41;5036103;28;20221;-74
2022/07/14 05:17:30;;;;;;;2.67;1.60;;;;;;;21.27;67.69;96574.13;5036670;28;20201;-74
2022/07/14 05:19:56;;;;;;;6.25;1.70;;;;;;;21.38;66.59;96559.88;5036011;28;21008;-74
2022/07/14 05:22:24;;;;;;;2.58;1.52;;;;;;;21.62;64.67;96564.16;5035729;28;20201;-74
2022/07/14 05:24:51;;;;;;;4.75;1.70;;;;;;;21.67;65.34;96561.59;5036662;28;20684;-74
2022/07/14 05:27:17;;;;;;;3.25;1.45;;;;;;;21.75;63.41;96570.06;5036480;28;20201;-74
2022/07/14 05:29:44;;;;;;;2.75;1.65;;;;;;;21.94;62.41;96568.84;5036402;28;20228;-74
2022/07/14 05:32:11;;;;;;;4.03;1.40;;;;;;;21.92;62.11;96565.59;5036374;28;20204;-74
2022/07/14 05:34:42;;;;;;;4.63;1.58;;;;;;;22.20;62.07;96561.03;5039988;28;20248;-75
2022/07/14 05:37:08;;;;;;;3.30;1.77;;;;;;;22.09;62.99;96564.56;5040782;28;20235;-74
2022/07/14 05:39:36;;;;;;;3.63;1.90;;;;;;;22.28;61.27;96567.91;5040497;28;21121;-74
2022/07/14 05:42:02;;;;;;;10.52;2.00;;;;;;;22.21;62.09;96567.19;5040824;28;20611;-75
2022/07/14 05:44:29;;;;;;;24.40;2.58;;;;;;;22.28;61.00;96559.88;5039510;28;20333;-75
2022/07/14 05:46:55;;;;;;;2.15;1.50;;;;;;;22.40;60.80;96558.75;5040007;28;20200;-75
2022/07/14 05:49:22;;;;;;;3.58;1.60;;;;;;;22.39;57.59;96562.50;5040835;28;20197;-74
2022/07/14 05:51:48;;;;;;;2.47;1.42;;;;;;;22.62;57.89;96561.50;5040435;28;20209;-74
2022/07/14 05:54:14;;;;;;;3.95;1.70;;;;;;;22.82;59.10;96559.97;5039246;28;20691;-74
2022/07/14 05:56:42;;;;;;;3.67;1.50;;;;;;;22.85;60.17;96563.00;5040212;28;20700;-74
2022/07/14 05:59:09;;;;;;;2.40;1.48;;;;;;;22.94;58.44;96566.91;5040337;28;20730;-74
2022/07/14 06:01:35;;;;;;;2.53;1.60;;;;;;;22.97;58.26;96565.59;5039483;28;20217;-74
2022/07/14 06:04:01;;;;;;;3.67;1.40;;;;;;;22.98;58.01;96561.84;5039460;28;20197;-74
2022/07/14 06:06:28;;;;;;;2.38;1.60;;;;;;;22.92;58.72;96562.81;5040168;28;20208;-74
2022/07/14 06:08:55;;;;;;;2.72;1.63;;;;;;;22.82;58.13;96566.19;5040008;28;20208;-74
2022/07/14 06:11:22;;;;;;;4.13;1.67;;;;;;;22.73;59.86;96553.38;5038455;28;20221;-74
2022/07/14 06:13:50;;;;;;;3.50;1.60;;;;;;;22.85;58.00;96559.50;5039249;28;20229;-74
2022/07/14 06:16:16;;;;;;;2.00;1.40;;;;;;;22.76;59.53;96552.91;5040411;28;20201;-74
2022/07/14 06:18:42;;;;;;;2.20;1.30;;;;;;;22.71;58.88;96555.50;5039542;28;20201;-74
2022/07/14 06:21:10;;;;;;;1.77;1.40;;;;;;;22.87;58.62;96552.81;5039134;28;20716;-74
2022/07/14 06:23:37;;;;;;;7.30;1.45;;;;;;;23.01;58.55;96550.63;5036344;28;20206;-74
2022/07/14 06:26:10;;;;;;;5.53;1.63;;;;;;;23.30;57.54;96552.94;5039653;28;20201;-74
2022/07/14 06:28:37;;;;;;;2.47;1.40;;;;;;;23.26;57.56;96559.06;5039197;28;20204;-72
2022/07/14 06:31:05;;;;;;;3.40;1.48;;;;;;;23.60;57.38;96556.84;5039830;28;20312;-72
2022/07/14 06:33:32;;;;;;;3.05;1.50;;;;;;;23.65;57.27;96554.22;5038053;28;20204;-72
2022/07/14 06:35:58;;;;;;;5.20;1.40;;;;;;;23.72;57.76;96554.06;5039289;28;20526;-72
2022/07/14 06:38:25;;;;;;;3.00;1.60;;;;;;;23.66;56.72;96558.56;5039538;28;20205;-72
2022/07/14 06:40:51;;;;;;;2.00;1.23;;;;;;;23.71;55.92;96564.00;5038126;28;20765;-72
2022/07/14 06:43:17;;;;;;;2.20;1.33;;;;;;;23.93;53.92;96552.19;5036457;28;20205;-72
2022/07/14 06:45:44;;;;;;;4.30;1.60;;;;;;;23.94;53.94;96561.06;5037028;28;20197;-72
2022/07/14 06:48:12;;;;;;;4.57;1.50;;;;;;;24.27;53.08;96559.00;5038873;28;20391;-71
2022/07/14 06:50:38;;;;;;;2.88;1.30;;;;;;;24.31;53.70;96562.84;5035174;28;20217;-72
2022/07/14 06:53:05;;;;;;;2.25;1.40;;;;;;;24.36;54.07;96551.28;5037885;28;20208;-72
2022/07/14 06:55:31;;;;;;;6.20;1.30;;;;;;;24.43;52.88;96554.63;5037759;28;20471;-72
2022/07/14 06:57:58;;;;;;;8.10;1.30;;;;;;;24.34;52.65;96556.13;5038476;28;20205;-72
2022/07/14 07:00:24;;;;;;;2.72;1.67;;;;;;;24.59;52.73;96543.72;5038124;28;20589;-72
2022/07/14 07:02:50;;;;;;;2.83;1.58;;;;;;;24.63;52.59;96545.66;5037687;28;20201;-72
2022/07/14 07:08:02;;;;;;;2.95;1.65;;;;;;;24.86;54.40;96529.13;5037964;28;20212;-72
2022/07/14 07:10:29;;;;;;;2.25;1.40;;;;;;;25.04;53.67;96531.41;5038097;28;20221;-72
2022/07/14 07:12:57;;;;;;;2.85;1.42;;;;;;;25.17;52.21;96533.69;5037443;28;20683;-72
2022/07/14 07:15:24;;;;;;;4.10;1.58;;;;;;;25.20;53.73;96535.84;5038070;28;20228;-72
2022/07/14 07:17:50;;;;;;;4.18;1.52;;;;;;;25.45;51.94;96533.31;5037786;28;20208;-72
2022/07/14 07:20:16;;;;;;;1.50;1.30;;;;;;;25.63;51.10;96527.47;5038237;28;20510;-72
2022/07/14 07:22:44;;;;;;;2.40;1.30;;;;;;;25.80;52.16;96522.69;5036860;28;20202;-72
2022/07/14 07:25:12;;;;;;;2.20;1.50;;;;;;;25.70;49.01;96522.63;5037723;28;20198;-72
2022/07/14 07:27:39;;;;;;;4.03;1.50;;;;;;;26.04;51.86;96519.25;5038045;28;20590;-72
2022/07/14 07:30:08;;;;;;;5.28;1.48;;;;;;;26.01;50.04;96517.91;5038321;28;20521;-72
2022/07/14 07:32:35;;;;;;;3.22;1.63;;;;;;;26.16;48.58;96514.44;5036316;28;20201;-72
2022/07/14 07:35:01;;;;;;;1.75;1.23;;;;;;;26.15;48.59;96518.22;5037563;28;20225;-72
2022/07/14 07:37:28;;;;;;;2.70;1.20;;;;;;;26.18;48.17;96521.16;5037994;28;20205;-72
2022/07/14 07:39:59;;;;;;;3.58;1.50;;;;;;;26.47;47.82;96516.94;5036855;28;20693;-72
2022/07/14 07:42:26;;;;;;;1.40;1.13;;;;;;;26.53;46.96;96507.75;5037056;28;20583;-72
2022/07/14 07:44:53;;;;;;;5.22;1.40;;;;;;;26.54;46.23;96509.41;5037242;28;20752;-72
2022/07/14 07:47:20;;;;;;;1.27;1.10;;;;;;;26.69;45.10;96506.66;5037541;28;20460;-72
2022/07/14 07:49:46;;;;;;;2.28;1.40;;;;;;;26.97;46.04;96504.25;5037333;28;20586;-72
2022/07/14 07:52:12;;;;;;;3.28;1.52;;;;;;;27.14;46.81;96494.75;5033895;28;20483;-73
2022/07/14 07:54:39;;;;;;;2.25;1.35;;;;;;;26.96;44.26;96507.22;5037211;28;20225;-72
2022/07/14 07:57:06;;;;;;;7.03;1.27;;;;;;;27.38;45.56;96493.09;5036566;28;20628;-72
2022/07/14 07:59:33;;;;;;;6.60;1.40;;;;;;;27.38;44.73;96484.97;5038147;28;20862;-72
2022/07/14 08:01:59;;;;;;;2.67;1.20;;;;;;;27.70;44.40;96480.00;5037199;28;20696;-72
2022/07/14 08:04:26;;;;;;;5.75;1.40;;;;;;;27.63;44.77;96475.97;5035966;28;20669;-72
2022/07/14 08:06:52;;;;;;;5.32;1.67;;;;;;;27.75;45.46;96459.09;5036880;28;20208;-72
2022/07/14 08:09:19;;;;;;;1.83;1.23;;;;;;;27.82;43.48;96464.22;5037947;28;20747;-72
2022/07/14 08:11:45;;;;;;;3.30;1.15;;;;;;;27.85;44.12;96467.19;5036375;28;20677;-72
2022/07/14 08:16:57;;;;;;;2.42;1.25;;;;;;;28.14;43.47;96451.03;5036990;28;20208;-72
2022/07/14 08:19:24;;;;;;;3.63;1.13;;;;;;;27.90;42.20;96455.50;5036887;28;20205;-72
2022/07/14 08:21:51;;;;;;;3.33;1.10;;;;;;;27.69;40.73;96446.66;5036793;28;20213;-72
2022/07/14 08:24:18;;;;;;;2.10;1.27;;;;;;;27.86;42.60;96446.31;5036432;28;20205;-72
2022/07/14 08:26:45;;;;;;;2.92;1.10;;;;;;;27.86;43.69;96443.59;5036580;28;20288;-72
2022/07/14 08:29:13;;;;;;;1.65;1.10;;;;;;;28.28;43.29;96438.50;5036403;28;20677;-72
2022/07/14 08:31:39;;;;;;;1.33;1.10;;;;;;;28.40;42.55;96445.97;5036833;28;20227;-72
2022/07/14 08:34:06;;;;;;;1.60;1.10;;;;;;;28.39;40.76;96441.63;5036455;28;20201;-72
2022/07/14 08:36:32;;;;;;;1.92;1.27;;;;;;;28.67;42.09;96430.00;5036943;28;20221;-72
2022/07/14 08:39:00;;;;;;;4.18;0.90;;;;;;;28.89;43.70;96438.53;5037665;28;20205;-72
2022/07/14 08:41:27;;;;;;;3.80;1.52;;;;;;;28.91;40.16;96443.66;5036942;28;20311;-72
2022/07/14 08:43:55;;;;;;;4.13;1.20;;;;;;;29.10;40.83;96438.03;5035223;28;20969;-72
2022/07/14 08:46:23;;;;;;;8.80;1.45;;;;;;;29.43;42.43;96445.31;5036733;28;20575;-72
2022/07/14 08:48:50;;;;;;;1.50;1.10;;;;;;;29.40;37.47;96434.19;5036162;28;20212;-72
2022/07/14 08:51:17;;;;;;;3.85;1.05;;;;;;;29.39;36.97;96438.00;5033993;28;20714;-72
2022/07/14 08:53:44;;;;;;;2.33;1.17;;;;;;;29.61;37.11;96439.91;5035233;28;20662;-72
2022/07/14 08:56:11;;;;;;;2.88;1.10;;;;;;;29.76;37.39;96434.28;5035754;28;20232;-72
2022/07/14 08:58:39;;;;;;;1.13;1.02;;;;;;;29.66;37.30;96431.69;5036456;28;20208;-72
2022/07/14 09:01:06;;;;;;;1.42;1.10;;;;;;;29.59;36.78;96427.69;5037032;28;20699;-72
2022/07/14 09:03:34;;;;;;;2.40;1.13;;;;;;;29.75;37.48;96429.94;5036667;28;20284;-72
2022/07/14 09:06:00;;;;;;;8.55;1.20;;;;;;;29.93;36.93;96428.38;5036806;28;20194;-72
2022/07/14 09:08:27;;;;;;;8.90;1.00;;;;;;;29.86;38.17;96426.03;5036277;28;20197;-72
2022/07/14 09:10:53;;;;;;;2.28;1.15;;;;;;;30.26;36.82;96428.16;5037384;28;20223;-72
2022/07/14 09:13:21;;;;;;;2.63;1.08;;;;;;;30.71;35.89;96424.72;5036152;28;20213;-72
2022/07/14 09:15:49;;;;;;;2.78;1.23;;;;;;;30.69;36.37;96425.03;5036170;28;20228;-72
2022/07/14 09:18:20;;;;;;;2.10;0.93;;;;;;;30.77;34.97;96424.31;5036736;28;20202;-72
2022/07/14 09:20:49;;;;;;;4.15;1.15;;;;;;;30.85;36.64;96415.47;5036417;28;20233;-72
2022/07/14 09:23:16;;;;;;;1.42;1.13;;;;;;;30.33;36.51;96418.50;5035439;28;20211;-72
2022/07/14 09:25:42;;;;;;;1.60;0.93;;;;;;;30.56;34.83;96416.81;5036463;28;20201;-72
2022/07/14 09:28:09;;;;;;;2.33;0.70;;;;;;;30.54;31.93;96419.81;5036745;28;20236;-72
2022/07/14 09:30:35;;;;;;;1.05;0.77;;;;;;;30.49;32.46;96405.50;5036045;28;20228;-72
2022/07/14 09:33:05;;;;;;;1.08;0.90;;;;;;;31.08;31.88;96398.19;5035762;28;21151;-72
2022/07/14 09:35:41;;;;;;;1.45;0.82;;;;;;;31.15;29.93;96399.41;5036224;28;20246;-72
2022/07/14 09:38:18;;;;;;;1.02;0.80;;;;;;;31.25;29.49;96398.41;5036403;28;20669;-72
2022/07/14 09:40:45;;;;;;;3.95;0.60;;;;;;;31.28;30.17;96397.81;5035725;28;20634;-72
2022/07/14 09:43:13;;;;;;;1.80;0.80;;;;;;;31.07;30.18;96396.56;5035183;28;20647;-72
2022/07/14 09:45:40;;;;;;;0.90;0.70;;;;;;;31.28;30.30;96393.16;5034788;28;20305;-72
2022/07/14 09:48:08;;;;;;;1.95;0.80;;;;;;;31.10;30.67;96391.34;5035330;28;20208;-72
2022/07/14 09:50:44;;;;;;;1.20;0.90;;;;;;;31.12;31.28;96377.41;5033218;28;20231;-72
2022/07/14 09:53:13;;;;;;;0.95;0.70;;;;;;;31.00;32.38;96382.56;5035775;28;20205;-72
2022/07/14 09:55:46;;;;;;;4.80;1.00;;;;;;;31.24;32.80;96375.03;5035802;28;20228;-72
2022/07/14 09:58:13;;;;;;;3.75;1.10;;;;;;;31.26;32.71;96384.47;5036600;28;20229;-72
2022/07/14 10:00:41;;;;;;;1.13;0.85;;;;;;;31.20;30.28;96363.91;5036361;28;20249;-72
2022/07/14 10:03:08;;;;;;;0.90;0.73;;;;;;;31.52;29.83;96369.28;5035217;28;20205;-72
2022/07/14 10:05:36;;;;;;;2.10;0.80;;;;;;;31.84;32.72;96364.44;5036014;28;20197;-72
2022/07/14 10:08:04;;;;;;;1.17;0.80;;;;;;;32.01;30.65;96358.38;5036529;28;20205;-72
2022/07/14 10:10:34;;;;;;;1.00;0.80;;;;;;;32.00;29.67;96364.94;5035901;28;20263;-73
2022/07/14 10:13:04;;;;;;;0.93;0.77;;;;;;;32.24;30.15;96358.06;5035935;28;20287;-72
2022/07/14 10:15:31;;;;;;;0.80;0.70;;;;;;;31.90;28.87;96356.94;5036123;28;20689;-72
2022/07/14 10:18:01;;;;;;;1.27;0.88;;;;;;;32.16;29.70;96353.38;5035630;28;20288;-72
2022/07/14 10:20:28;;;;;;;0.95;0.90;;;;;;;32.33;30.20;96353.50;5038937;28;20232;-72
2022/07/14 10:22:55;;;;;;;0.73;0.70;;;;;;;32.35;31.32;96348.53;5040051;28;20205;-73
2022/07/14 10:25:22;;;;;;;1.10;1.00;;;;;;;32.19;30.70;96347.28;5039786;28;20312;-72
2022/07/14 10:27:49;;;;;;;5.10;1.00;;;;;;;32.08;30.91;96347.84;5039408;28;20197;-72
2022/07/14 10:30:17;;;;;;;0.80;0.80;;;;;;;32.11;30.66;96343.38;5039600;28;20335;-72
2022/07/14 10:32:56;;;;;;;2.13;1.10;;;;;;;32.44;30.92;96342.00;5038942;28;20205;-72
2022/07/14 10:35:45;;;;;;;4.05;0.95;;;;;;;32.64;29.84;96336.06;5039580;28;20229;-72
2022/07/14 10:38:23;;;;;;;1.10;0.98;;;;;;;32.90;29.91;96339.72;5039416;28;20208;-72
2022/07/14 10:41:08;;;;;;;2.55;0.90;;;;;;;32.58;27.97;96325.59;5039436;28;20233;-73
2022/07/14 10:43:54;;;;;;;1.20;0.98;;;;;;;32.62;28.57;96321.13;5038746;28;20577;-73
2022/07/14 10:46:36;;;;;;;4.13;0.80;;;;;;;32.81;28.08;96325.22;5038994;28;20202;-72
2022/07/14 10:49:06;;;;;;;2.55;1.00;;;;;;;32.92;29.96;96321.13;5038837;28;21038;-72
2022/07/14 10:51:34;;;;;;;1.77;1.15;;;;;;;32.92;29.24;96319.19;5037217;28;20886;-72
2022/07/14 10:54:12;;;;;;;3.13;1.00;;;;;;;33.34;30.42;96313.09;5038457;28;20201;-72
2022/07/14 10:56:39;;;;;;;2.58;1.30;;;;;;;32.87;28.67;96313.84;5038841;28;20220;-72
2022/07/14 10:59:29;;;;;;;3.75;1.20;;;;;;;33.26;30.00;96311.13;5039312;28;20209;-72
2022/07/14 11:02:33;;;;;;;2.80;1.13;;;;;;;33.22;30.09;96312.88;5039136;28;20202;-72
2022/07/14 11:05:08;;;;;;;1.33;1.23;;;;;;;32.98;32.75;96308.91;5038434;28;20220;-72
2022/07/14 11:07:40;;;;;;;1.55;1.25;;;;;;;33.29;29.69;96304.22;5038733;28;20205;-72
2022/07/14 11:10:46;;;;;;;1.35;1.10;;;;;;;33.51;30.10;96303.00;5036838;28;20229;-72
2022/07/14 11:13:17;;;;;;;3.10;0.98;;;;;;;33.50;28.74;96303.31;5036797;28;20205;-72
2022/07/14 11:15:46;;;;;;;4.78;0.90;;;;;;;33.70;27.15;96292.59;5038352;28;20225;-72
2022/07/14 11:18:26;;;;;;;1.40;0.90;;;;;;;33.71;27.29;96286.00;5038280;28;20205;-72
2022/07/14 11:20:58;;;;;;;1.75;1.00;;;;;;;33.06;28.10;96286.34;5036902;28;20268;-73
2022/07/14 11:23:26;;;;;;;1.10;0.93;;;;;;;33.15;28.42;96287.19;5036776;28;20448;-72
2022/07/14 11:25:55;;;;;;;5.20;1.10;;;;;;;33.38;28.23;96287.53;5037124;28;20735;-72
2022/07/14 11:28:41;;;;;;;1.75;1.20;;;;;;;33.29;27.39;96272.25;5037729;28;20212;-72
2022/07/14 11:31:09;;;;;;;1.52;1.05;;;;;;;33.71;28.25;96275.06;5037997;28;20224;-72
2022/07/14 11:36:17;;;;;;;2.95;1.00;;;;;;;33.65;27.71;96273.59;5035351;28;20205;-72
2022/07/14 11:36:23;;;;;;;1.10;0.90;;;;;;;33.60;27.86;96256.56;5037443;28;20221;-72
2022/07/14 11:38:50;;;;;;;1.17;0.90;;;;;;;33.85;30.29;96264.78;5037994;28;21051;-72
2022/07/14 11:41:16;;;;;;;5.80;1.10;;;;;;;33.95;27.73;96258.16;5037953;28;20221;-72
2022/07/14 11:43:50;;;;;;;5.75;1.23;;;;;;;34.11;28.32;96251.91;5036713;28;20213;-72
2022/07/14 11:46:19;;;;;;;3.53;1.00;;;;;;;34.38;28.60;96257.81;5037629;28;20669;-72
2022/07/14 11:48:48;;;;;;;5.50;1.05;;;;;;;34.24;26.61;96248.16;5038186;28;20197;-72
2022/07/14 11:51:19;;;;;;;3.20;1.00;;;;;;;34.21;26.67;96232.41;5037723;28;20270;-72